Time;durP1;ratioP1;P1;durP2;ratioP2;P2;SDS_P1;SDS_P2;PMS_P1;PMS_P2;Temp;Humidity;BMP_temperature;BMP_pressure;BME280_temperature;BME280_humidity;BME280_pressure;Samples;Min_cycle;Max_cycle;Signal;HPM_P1;HPM_P2
2022/06/29 00:02:11;;;;;;;7.80;2.90;;;;;;;20.57;69.06;100601.40;106134;1271;25251;-61
2022/06/29 00:04:44;;;;;;;9.30;2.80;;;;;;;20.56;69.14;100585.91;106285;1271;25403;-62
2022/06/29 00:07:16;;;;;;;7.50;2.70;;;;;;;20.56;69.17;100559.40;106000;1271;22552;-61
2022/06/29 00:09:49;;;;;;;10.00;2.70;;;;;;;20.56;69.41;100562.13;106146;1271;22542;-62
2022/06/29 00:12:20;;;;;;;10.10;3.10;;;;;;;20.52;69.36;100563.95;106245;1270;23919;-63
2022/06/29 00:14:52;;;;;;;9.80;3.10;;;;;;;20.48;69.40;100551.33;105843;1271;25414;-61
2022/06/29 00:17:24;;;;;;;8.50;2.90;;;;;;;20.44;69.66;100538.20;106106;1270;25407;-61
2022/06/29 00:19:55;;;;;;;8.20;2.80;;;;;;;20.42;69.79;100534.66;106150;1270;25318;-61
2022/06/29 00:22:27;;;;;;;6.30;2.10;;;;;;;20.42;69.73;100525.84;105984;1271;22615;-61
2022/06/29 00:25:01;;;;;;;8.50;2.30;;;;;;;20.39;70.21;100521.11;106205;1270;22608;-62
2022/06/29 00:27:33;;;;;;;6.50;2.10;;;;;;;20.34;70.14;100518.41;106096;1270;22541;-61
2022/06/29 00:30:06;;;;;;;9.20;2.50;;;;;;;20.32;70.06;100519.05;106095;1271;22542;-61
2022/06/29 00:32:38;;;;;;;4.80;1.70;;;;;;;20.30;70.14;100511.05;106031;1270;22558;-62
2022/06/29 00:35:12;;;;;;;5.80;2.00;;;;;;;20.27;70.45;100508.27;106172;1270;24384;-61
2022/06/29 00:37:44;;;;;;;7.80;2.00;;;;;;;20.22;70.50;100508.50;106133;1270;24330;-62
2022/06/29 00:40:17;;;;;;;8.20;2.30;;;;;;;20.19;70.67;100496.31;106185;1271;22553;-62
2022/06/29 00:42:50;;;;;;;6.20;1.90;;;;;;;20.16;70.68;100489.86;106263;1270;25304;-62
2022/06/29 00:45:22;;;;;;;9.30;2.10;;;;;;;20.13;70.79;100476.24;106126;1270;23196;-62
2022/06/29 00:47:55;;;;;;;6.70;2.20;;;;;;;20.11;70.90;100481.02;106095;1270;24390;-62
2022/06/29 00:50:30;;;;;;;7.80;3.00;;;;;;;20.10;71.11;100476.57;106113;1271;22608;-62
2022/06/29 00:53:05;;;;;;;6.40;2.10;;;;;;;20.06;71.23;100464.41;106213;1270;25265;-61
2022/06/29 00:55:40;;;;;;;6.90;2.20;;;;;;;20.03;71.41;100460.95;106031;1271;22534;-61
2022/06/29 00:58:13;;;;;;;6.20;2.10;;;;;;;20.00;71.51;100467.80;106040;1271;22541;-61
2022/06/29 01:00:45;;;;;;;7.40;2.30;;;;;;;19.99;71.42;100480.73;106195;1270;24304;-64
2022/06/29 01:03:16;;;;;;;7.30;2.10;;;;;;;19.98;71.53;100485.91;106154;1271;22591;-60
2022/06/29 01:05:48;;;;;;;5.60;1.90;;;;;;;19.93;71.67;100486.88;106086;1271;24322;-60
2022/06/29 01:08:20;;;;;;;7.00;1.80;;;;;;;19.90;71.65;100491.70;106213;1271;25308;-60
2022/06/29 01:10:53;;;;;;;5.70;1.80;;;;;;;19.89;71.99;100493.27;106079;1271;22569;-64
2022/06/29 01:13:24;;;;;;;12.10;2.10;;;;;;;19.86;71.98;100501.10;106166;1271;22525;-61
2022/06/29 01:15:56;;;;;;;5.20;1.70;;;;;;;19.86;71.98;100494.14;106217;1270;24298;-61
2022/06/29 01:18:29;;;;;;;5.90;1.80;;;;;;;19.85;72.29;100478.23;106333;1271;22572;-58
2022/06/29 01:21:06;;;;;;;7.50;1.70;;;;;;;19.82;72.43;100472.14;105996;1271;25363;-61
2022/06/29 01:23:37;;;;;;;7.00;2.00;;;;;;;19.78;72.45;100476.13;106030;1271;24293;-61
2022/06/29 01:26:11;;;;;;;6.20;2.00;;;;;;;19.75;72.65;100480.17;106029;1271;22537;-61
2022/06/29 01:28:46;;;;;;;4.50;1.80;;;;;;;19.74;72.73;100483.14;105846;1271;24961;-61
2022/06/29 01:31:19;;;;;;;5.60;1.70;;;;;;;19.73;72.59;100484.17;106421;1271;26571;-62
2022/06/29 01:33:51;;;;;;;5.00;1.70;;;;;;;19.73;72.97;100497.73;106077;1271;25341;-62
2022/06/29 01:36:23;;;;;;;7.50;2.30;;;;;;;19.68;72.89;100515.35;106075;1271;25333;-61
2022/06/29 01:38:55;;;;;;;6.50;1.80;;;;;;;19.67;73.00;100523.52;106152;1271;23893;-61
2022/06/29 01:41:26;;;;;;;6.00;2.20;;;;;;;19.68;72.88;100529.31;106039;1271;22554;-61
2022/06/29 01:43:58;;;;;;;5.00;1.90;;;;;;;19.69;72.86;100534.40;106016;1271;22530;-60
2022/06/29 01:46:29;;;;;;;7.10;2.10;;;;;;;19.70;72.90;100529.75;105916;1271;23214;-61
2022/06/29 01:49:01;;;;;;;7.40;2.00;;;;;;;19.72;72.77;100526.38;106101;1271;24403;-60
2022/06/29 01:51:32;;;;;;;10.60;2.10;;;;;;;19.74;72.82;100522.13;106194;1270;22550;-60
2022/06/29 01:54:05;;;;;;;7.80;2.30;;;;;;;19.75;72.90;100520.52;105987;1271;24288;-61
2022/06/29 01:56:37;;;;;;;6.00;2.70;;;;;;;19.74;72.93;100531.38;105882;1272;24227;-61
2022/06/29 01:59:09;;;;;;;8.30;3.00;;;;;;;19.75;72.91;100535.95;106010;1271;22657;-62
2022/06/29 02:01:40;;;;;;;7.20;2.40;;;;;;;19.76;72.91;100532.36;106130;1271;24259;-61
2022/06/29 02:04:12;;;;;;;6.50;2.50;;;;;;;19.77;72.88;100534.18;105910;1270;24268;-61
2022/06/29 02:06:45;;;;;;;7.10;2.50;;;;;;;19.78;72.87;100537.30;105834;1271;23986;-61
2022/06/29 02:09:17;;;;;;;8.10;2.70;;;;;;;19.79;72.97;100538.13;106141;1271;22523;-61
2022/06/29 02:11:48;;;;;;;7.70;2.50;;;;;;;19.80;72.98;100533.94;106205;1271;22539;-65
2022/06/29 02:14:21;;;;;;;8.80;2.70;;;;;;;19.81;72.91;100537.11;106030;1271;24261;-61
2022/06/29 02:16:53;;;;;;;7.00;2.50;;;;;;;19.83;72.85;100535.39;105900;1271;24233;-61
2022/06/29 02:19:25;;;;;;;6.80;2.30;;;;;;;19.84;72.89;100532.29;106178;1271;22641;-61
2022/06/29 02:21:56;;;;;;;9.70;2.80;;;;;;;19.85;72.82;100527.17;106127;1271;22544;-62
2022/06/29 02:24:28;;;;;;;8.40;2.60;;;;;;;19.87;72.92;100524.41;106271;1270;23066;-61
2022/06/29 02:27:00;;;;;;;7.70;3.40;;;;;;;19.87;72.96;100519.58;105949;1271;22528;-61
2022/06/29 02:29:32;;;;;;;8.50;3.20;;;;;;;19.86;72.91;100518.48;105981;1271;22770;-61
2022/06/29 02:34:52;;;;;;;9.10;2.80;;;;;;;19.85;72.98;100508.88;105714;1271;22503;-60
2022/06/29 02:37:24;;;;;;;8.90;3.40;;;;;;;19.85;73.07;100498.01;106048;1271;25264;-60
2022/06/29 02:39:56;;;;;;;8.50;3.30;;;;;;;19.84;73.10;100493.34;106106;1271;22529;-61
2022/06/29 02:42:27;;;;;;;7.70;2.40;;;;;;;19.83;73.17;100492.89;106262;1271;22558;-60
2022/06/29 02:44:59;;;;;;;11.00;3.20;;;;;;;19.80;73.25;100497.83;105939;1271;25355;-61
2022/06/29 02:47:31;;;;;;;7.40;3.20;;;;;;;19.77;73.34;100494.73;105982;1271;22634;-61
2022/06/29 02:50:02;;;;;;;8.80;3.20;;;;;;;19.75;73.46;100499.86;106013;1271;24235;-61
2022/06/29 02:52:34;;;;;;;12.20;3.60;;;;;;;19.72;73.30;100502.21;106071;1271;24307;-60
2022/06/29 02:55:07;;;;;;;9.70;3.30;;;;;;;19.71;73.58;100501.41;106120;1271;23971;-61
2022/06/29 02:57:39;;;;;;;16.90;4.10;;;;;;;19.71;73.42;100504.91;106080;1271;22596;-61
2022/06/29 03:00:13;;;;;;;10.30;4.60;;;;;;;19.71;73.52;100505.79;105950;1271;24303;-60
2022/06/29 03:02:44;;;;;;;12.10;4.00;;;;;;;19.73;73.42;100503.29;106085;1271;24274;-61
2022/06/29 03:05:16;;;;;;;10.50;4.50;;;;;;;19.74;73.55;100503.23;106000;1271;25558;-60
2022/06/29 03:07:49;;;;;;;14.10;5.10;;;;;;;19.71;73.82;100505.37;106003;1271;25331;-61
2022/06/29 03:10:21;;;;;;;11.70;4.90;;;;;;;19.67;73.80;100508.16;105958;1271;24338;-59
2022/06/29 03:12:53;;;;;;;10.90;5.20;;;;;;;19.68;73.85;100503.92;106066;1271;22618;-60
2022/06/29 03:15:26;;;;;;;13.10;5.60;;;;;;;19.67;73.90;100496.83;106049;1271;23933;-60
2022/06/29 03:17:58;;;;;;;12.00;5.30;;;;;;;19.68;73.93;100490.64;105982;1271;25606;-61
2022/06/29 03:20:30;;;;;;;12.70;5.70;;;;;;;19.66;74.02;100491.85;105891;1271;23164;-60
2022/06/29 03:23:01;;;;;;;13.50;5.50;;;;;;;19.64;74.11;100497.39;106001;1270;24303;-60
2022/06/29 03:25:33;;;;;;;15.50;6.40;;;;;;;19.61;74.14;100499.19;105878;1270;22532;-61
2022/06/29 03:28:05;;;;;;;12.80;6.70;;;;;;;19.59;74.33;100500.35;106019;1270;22996;-60
2022/06/29 03:30:36;;;;;;;14.00;6.70;;;;;;;19.56;74.50;100496.11;105893;1270;24524;-61
2022/06/29 03:33:09;;;;;;;17.40;6.60;;;;;;;19.54;74.55;100498.56;105868;1271;22704;-60
2022/06/29 03:35:43;;;;;;;17.00;6.50;;;;;;;19.51;74.78;100497.20;105928;1270;22551;-61
2022/06/29 03:38:14;;;;;;;14.80;6.30;;;;;;;19.48;74.74;100501.98;106067;1270;25251;-62
2022/06/29 03:40:46;;;;;;;15.70;6.10;;;;;;;19.48;74.89;100499.92;106140;1270;24291;-61
2022/06/29 03:43:18;;;;;;;15.40;7.00;;;;;;;19.48;74.94;100500.39;105876;1271;22528;-61
2022/06/29 03:45:49;;;;;;;16.20;6.90;;;;;;;19.48;75.01;100502.35;105854;1270;22564;-60
2022/06/29 03:48:21;;;;;;;13.50;6.10;;;;;;;19.48;75.16;100499.82;105908;1271;22941;-66
2022/06/29 03:50:53;;;;;;;16.40;6.20;;;;;;;19.48;75.13;100499.11;106035;1269;24294;-61
2022/06/29 03:53:24;;;;;;;14.70;6.50;;;;;;;19.46;75.44;100500.25;106255;1270;26524;-60
2022/06/29 03:55:56;;;;;;;13.90;6.20;;;;;;;19.46;75.33;100499.34;105896;1271;22595;-60
2022/06/29 03:58:28;;;;;;;13.40;6.60;;;;;;;19.49;75.44;100492.39;105991;1270;22564;-61
2022/06/29 04:01:00;;;;;;;14.70;7.40;;;;;;;19.49;75.82;100487.61;105942;1270;25464;-61
2022/06/29 04:03:33;;;;;;;14.80;6.60;;;;;;;19.45;75.91;100489.20;105888;1270;22845;-60
2022/06/29 04:06:06;;;;;;;13.70;6.30;;;;;;;19.44;75.82;100498.52;106077;1270;24231;-62
2022/06/29 04:08:38;;;;;;;14.50;5.60;;;;;;;19.45;76.17;100499.60;106028;1271;24276;-61
2022/06/29 04:13:55;;;;;;;22.20;7.00;;;;;;;19.46;76.41;100496.65;105774;1271;22612;-59
2022/06/29 04:16:27;;;;;;;14.10;6.70;;;;;;;19.44;76.27;100500.64;105925;1271;24270;-60
2022/06/29 04:18:59;;;;;;;14.30;6.40;;;;;;;19.45;76.23;100502.85;105872;1270;24411;-61
2022/06/29 04:21:31;;;;;;;16.80;7.00;;;;;;;19.48;76.44;100505.90;105882;1271;22576;-60
2022/06/29 04:24:03;;;;;;;14.60;7.10;;;;;;;19.47;76.34;100507.14;105943;1270;25584;-61
2022/06/29 04:26:34;;;;;;;11.80;5.70;;;;;;;19.48;76.33;100501.11;105887;1270;25420;-60
2022/06/29 04:29:08;;;;;;;12.30;6.10;;;;;;;19.51;76.27;100489.80;106074;1270;22643;-61
2022/06/29 04:31:40;;;;;;;15.80;7.00;;;;;;;19.54;76.35;100488.26;105928;1271;25261;-61
2022/06/29 04:34:11;;;;;;;15.80;7.30;;;;;;;19.56;76.48;100481.69;105912;1270;22570;-64
2022/06/29 04:36:44;;;;;;;17.20;6.80;;;;;;;19.58;76.58;100483.16;105838;1270;24368;-61
2022/06/29 04:39:15;;;;;;;16.90;7.00;;;;;;;19.58;76.37;100479.40;105846;1270;23554;-61
2022/06/29 04:41:48;;;;;;;15.60;6.40;;;;;;;19.60;76.49;100482.55;105934;1270;25251;-60
2022/06/29 04:44:20;;;;;;;13.60;6.20;;;;;;;19.62;76.45;100481.66;105939;1270;25296;-61
2022/06/29 04:46:51;;;;;;;15.30;7.00;;;;;;;19.65;76.64;100480.70;106021;1270;25408;-66
2022/06/29 04:49:24;;;;;;;13.50;6.20;;;;;;;19.67;76.54;100480.77;105968;1270;22532;-61
2022/06/29 04:51:56;;;;;;;12.30;6.00;;;;;;;19.70;76.58;100479.59;106018;1270;23657;-59
2022/06/29 04:54:28;;;;;;;13.40;6.10;;;;;;;19.71;76.76;100485.09;105857;1270;22535;-63
2022/06/29 04:56:59;;;;;;;14.20;6.30;;;;;;;19.72;76.69;100484.05;105970;1270;23087;-61
2022/06/29 04:59:32;;;;;;;11.70;5.50;;;;;;;19.72;76.64;100483.21;106394;1270;22548;-60
2022/06/29 05:02:04;;;;;;;12.30;5.80;;;;;;;19.75;76.69;100480.63;105967;1270;22557;-62
2022/06/29 05:04:35;;;;;;;16.80;7.10;;;;;;;19.80;76.61;100481.30;106162;1270;22592;-62
2022/06/29 05:07:07;;;;;;;14.80;6.10;;;;;;;19.84;76.57;100480.15;106196;1270;25416;-60
2022/06/29 05:09:38;;;;;;;12.80;6.30;;;;;;;19.88;76.57;100480.52;109143;1270;23188;-61
2022/06/29 05:12:10;;;;;;;14.80;5.90;;;;;;;19.92;76.52;100482.66;105978;1270;22570;-61
2022/06/29 05:14:42;;;;;;;15.10;5.40;;;;;;;19.96;76.43;100476.47;106305;1270;24236;-61
2022/06/29 05:17:14;;;;;;;16.40;6.00;;;;;;;20.02;76.30;100476.23;106053;1270;22831;-61
2022/06/29 05:19:46;;;;;;;14.50;6.80;;;;;;;20.05;76.14;100477.65;106121;1270;22529;-61
2022/06/29 05:22:18;;;;;;;13.50;5.50;;;;;;;20.09;76.16;100479.66;106172;1270;24260;-60
2022/06/29 05:24:49;;;;;;;12.50;5.40;;;;;;;20.15;76.24;100481.41;106056;1270;22620;-60
2022/06/29 05:27:21;;;;;;;14.70;7.20;;;;;;;20.19;76.15;100485.39;106033;1270;22617;-61
2022/06/29 05:29:53;;;;;;;14.60;6.00;;;;;;;20.22;76.11;100488.77;106002;1271;22635;-60
2022/06/29 05:32:26;;;;;;;14.00;6.40;;;;;;;20.26;76.08;100494.27;106028;1271;25333;-61
2022/06/29 05:34:58;;;;;;;11.50;5.80;;;;;;;20.31;75.93;100492.02;106255;1270;22574;-61
2022/06/29 05:37:30;;;;;;;14.00;7.30;;;;;;;20.34;76.00;100491.77;106133;1271;23910;-61
2022/06/29 05:40:02;;;;;;;16.00;7.30;;;;;;;20.35;76.02;100490.82;106110;1270;22591;-62
2022/06/29 05:42:34;;;;;;;14.40;7.20;;;;;;;20.37;76.11;100494.75;106115;1270;22575;-60
2022/06/29 05:45:07;;;;;;;13.00;5.80;;;;;;;20.42;76.02;100494.35;106004;1270;26566;-62
2022/06/29 05:47:40;;;;;;;14.20;6.70;;;;;;;20.48;75.90;100491.36;105985;1270;22606;-60
2022/06/29 05:50:13;;;;;;;14.90;5.60;;;;;;;20.56;75.76;100489.77;105945;1270;24392;-60
2022/06/29 05:52:45;;;;;;;15.50;6.40;;;;;;;20.62;75.72;100485.53;105910;1270;22537;-61
2022/06/29 05:55:18;;;;;;;17.90;8.70;;;;;;;20.68;75.55;100484.31;105902;1270;27452;-62
2022/06/29 05:57:49;;;;;;;14.80;7.40;;;;;;;20.77;75.64;100482.17;106077;1270;22571;-62
2022/06/29 06:00:21;;;;;;;16.80;7.60;;;;;;;20.88;75.75;100475.19;106154;1270;25320;-61
2022/06/29 06:02:53;;;;;;;16.50;7.60;;;;;;;20.96;75.42;100471.17;105889;1270;24233;-60
2022/06/29 06:05:24;;;;;;;15.90;8.30;;;;;;;21.03;75.25;100462.29;105979;1270;24334;-61
2022/06/29 06:07:56;;;;;;;15.50;7.60;;;;;;;21.12;75.08;100465.88;106000;1270;25496;-61
2022/06/29 06:10:27;;;;;;;14.90;7.80;;;;;;;21.21;74.87;100463.88;106035;1270;22601;-61
2022/06/29 06:13:02;;;;;;;17.90;8.80;;;;;;;21.26;74.67;100468.22;105899;1270;24285;-60
2022/06/29 06:15:43;;;;;;;17.20;8.50;;;;;;;21.33;74.67;100466.77;106093;1270;22537;-61
2022/06/29 06:18:18;;;;;;;17.00;7.80;;;;;;;21.45;74.72;100468.42;105955;1270;24287;-61
2022/06/29 06:20:51;;;;;;;14.80;8.60;;;;;;;21.57;74.44;100469.98;105919;1270;24243;-61
2022/06/29 06:23:23;;;;;;;17.20;8.90;;;;;;;21.65;74.24;100466.58;106009;1270;22670;-60
2022/06/29 06:25:55;;;;;;;15.90;8.00;;;;;;;21.73;74.04;100464.98;106061;1270;22619;-61
2022/06/29 06:28:26;;;;;;;15.10;7.60;;;;;;;21.83;73.94;100466.34;106171;1270;22630;-62
2022/06/29 06:30:58;;;;;;;17.20;8.90;;;;;;;21.91;73.77;100453.63;106227;1270;22550;-62
2022/06/29 06:33:31;;;;;;;20.60;9.20;;;;;;;21.92;73.33;100451.33;105954;1270;25330;-61
2022/06/29 06:36:03;;;;;;;15.30;7.70;;;;;;;21.96;73.36;100449.66;106036;1270;24394;-61
2022/06/29 06:38:35;;;;;;;19.10;8.90;;;;;;;22.02;73.14;100445.23;106029;1270;22550;-64
2022/06/29 06:41:25;;;;;;;15.70;7.90;;;;;;;22.09;72.89;100432.35;106010;1270;23061;-62
2022/06/29 06:43:58;;;;;;;14.30;7.80;;;;;;;22.12;72.90;100430.67;105996;1270;25676;-61
2022/06/29 06:46:33;;;;;;;17.80;9.30;;;;;;;22.17;72.81;100438.65;105935;1270;26294;-62
2022/06/29 06:49:05;;;;;;;15.60;7.80;;;;;;;22.25;72.45;100439.88;105862;1270;25576;-60
2022/06/29 06:51:37;;;;;;;15.30;9.30;;;;;;;22.31;72.28;100441.07;106065;1270;25644;-62
2022/06/29 06:54:08;;;;;;;15.70;7.80;;;;;;;22.26;71.98;100438.57;106025;1270;25453;-62
2022/06/29 06:56:40;;;;;;;18.20;8.40;;;;;;;22.27;72.06;100434.24;106068;1270;22636;-62
2022/06/29 06:59:12;;;;;;;17.10;9.10;;;;;;;22.32;71.83;100426.90;106253;1270;25257;-61
2022/06/29 07:01:45;;;;;;;18.50;9.20;;;;;;;22.31;71.69;100425.04;105977;1270;22524;-61
2022/06/29 07:04:20;;;;;;;15.10;8.70;;;;;;;22.31;71.56;100423.18;106024;1270;26489;-60
2022/06/29 07:06:52;;;;;;;16.50;8.80;;;;;;;22.36;71.47;100421.96;105973;1270;23102;-62
2022/06/29 07:09:24;;;;;;;20.10;8.50;;;;;;;22.41;71.28;100426.02;106109;1270;22891;-60
2022/06/29 07:11:55;;;;;;;17.00;8.30;;;;;;;22.43;71.22;100431.56;106005;1270;22547;-60
2022/06/29 07:14:27;;;;;;;15.20;8.40;;;;;;;22.46;71.13;100430.46;105934;1270;25646;-62
2022/06/29 07:17:00;;;;;;;15.30;7.90;;;;;;;22.51;71.27;100433.98;105915;1270;24378;-62
2022/06/29 07:19:32;;;;;;;14.90;8.30;;;;;;;22.59;71.09;100433.11;106082;1270;24438;-62
2022/06/29 07:22:04;;;;;;;16.50;8.80;;;;;;;22.70;71.01;100433.61;105930;1270;22589;-62
2022/06/29 07:24:35;;;;;;;15.70;8.50;;;;;;;22.78;70.67;100441.98;105998;1270;25665;-62
2022/06/29 07:27:07;;;;;;;17.00;8.90;;;;;;;22.83;70.38;100448.62;106133;1270;22543;-62
2022/06/29 07:29:39;;;;;;;19.60;9.20;;;;;;;22.86;70.34;100439.94;106026;1270;22539;-60
2022/06/29 07:32:11;;;;;;;14.30;7.90;;;;;;;22.94;70.29;100426.83;106054;1270;22665;-60
2022/06/29 07:34:44;;;;;;;15.60;7.70;;;;;;;23.04;69.95;100414.39;106000;1270;22580;-61
2022/06/29 07:37:16;;;;;;;18.80;8.40;;;;;;;23.09;69.81;100420.60;106103;1270;22599;-63
2022/06/29 07:39:49;;;;;;;13.20;6.80;;;;;;;23.16;69.77;100427.27;105952;1271;22562;-63
2022/06/29 07:42:21;;;;;;;13.50;6.60;;;;;;;23.29;69.93;100425.03;105914;1270;22530;-62
2022/06/29 07:44:53;;;;;;;12.50;6.00;;;;;;;23.45;69.27;100416.59;105875;1270;24231;-62
2022/06/29 07:47:25;;;;;;;17.60;6.20;;;;;;;23.58;69.25;100416.22;105953;1270;22556;-60
2022/06/29 07:49:58;;;;;;;15.30;6.90;;;;;;;23.74;68.72;100428.83;106078;1270;24297;-62
2022/06/29 07:52:33;;;;;;;14.40;6.50;;;;;;;23.85;68.30;100436.73;105990;1270;25324;-62
2022/06/29 07:55:04;;;;;;;9.70;4.20;;;;;;;23.95;68.03;100442.65;106003;1270;22601;-61
2022/06/29 07:57:36;;;;;;;10.40;4.60;;;;;;;24.13;68.04;100459.02;106002;1270;22526;-63
2022/06/29 08:00:10;;;;;;;9.40;5.10;;;;;;;24.31;67.72;100463.44;105956;1270;23030;-63
2022/06/29 08:02:42;;;;;;;13.00;5.30;;;;;;;24.48;67.30;100459.67;106028;1270;22541;-62
2022/06/29 08:05:14;;;;;;;11.90;4.80;;;;;;;24.68;66.69;100462.80;106012;1270;22701;-62
2022/06/29 08:07:54;;;;;;;13.10;4.90;;;;;;;24.84;66.19;100465.60;105788;1270;24415;-63
2022/06/29 08:10:26;;;;;;;10.50;4.90;;;;;;;25.02;66.06;100453.23;105969;1270;24356;-66
2022/06/29 08:13:00;;;;;;;10.70;5.00;;;;;;;25.18;65.54;100444.02;106044;1270;22531;-63
2022/06/29 08:15:33;;;;;;;8.70;4.20;;;;;;;25.28;65.11;100443.06;106039;1270;24404;-63
2022/06/29 08:18:05;;;;;;;14.20;5.80;;;;;;;25.33;64.54;100451.64;106301;1269;22551;-63
2022/06/29 08:20:38;;;;;;;13.00;4.90;;;;;;;25.34;63.94;100456.08;102093;1270;5534110;-62
2022/06/29 08:23:12;;;;;;;14.70;5.40;;;;;;;25.33;63.83;100458.42;106021;1270;22630;-62
2022/06/29 08:25:44;;;;;;;10.20;5.10;;;;;;;25.29;64.30;100449.17;105997;1270;22548;-63
2022/06/29 08:28:17;;;;;;;13.00;6.50;;;;;;;25.19;65.11;100439.80;105966;1270;24057;-63
2022/06/29 08:30:49;;;;;;;13.20;5.50;;;;;;;25.04;65.80;100428.17;105971;1270;24281;-61
2022/06/29 08:33:22;;;;;;;14.00;5.60;;;;;;;24.87;66.16;100415.76;106066;1270;23481;-57
2022/06/29 08:35:54;;;;;;;15.70;6.10;;;;;;;24.74;65.64;100389.13;106027;1270;22531;-61
2022/06/29 08:38:25;;;;;;;12.60;5.90;;;;;;;24.61;65.93;100370.71;105985;1270;24332;-58
2022/06/29 08:40:57;;;;;;;15.30;6.40;;;;;;;24.49;66.21;100358.68;106169;1270;23070;-57
2022/06/29 08:43:29;;;;;;;13.30;4.90;;;;;;;24.33;66.57;100357.33;106016;1270;25417;-61
2022/06/29 08:46:01;;;;;;;10.60;4.70;;;;;;;24.15;66.97;100359.77;106063;1270;22954;-58
2022/06/29 08:48:33;;;;;;;13.00;6.00;;;;;;;23.98;67.10;100369.61;105991;1270;24319;-62
2022/06/29 08:51:06;;;;;;;18.60;6.40;;;;;;;23.85;67.31;100383.02;106171;1270;24396;-61
2022/06/29 08:53:41;;;;;;;11.40;5.20;;;;;;;23.73;67.36;100374.63;105998;1270;22668;-64
2022/06/29 08:56:13;;;;;;;12.80;5.30;;;;;;;23.57;67.48;100362.94;106089;1270;22525;-63
2022/06/29 08:58:46;;;;;;;11.60;5.10;;;;;;;23.43;67.77;100362.61;106037;1270;26568;-63
2022/06/29 09:01:18;;;;;;;12.80;5.90;;;;;;;23.31;68.20;100368.45;105986;1270;22707;-63
2022/06/29 09:03:50;;;;;;;11.70;5.50;;;;;;;23.21;68.71;100370.72;105995;1270;25363;-63
2022/06/29 09:06:22;;;;;;;13.40;5.90;;;;;;;23.12;68.89;100369.99;105968;1270;22532;-64
2022/06/29 09:08:54;;;;;;;12.10;6.00;;;;;;;23.09;69.25;100366.91;106045;1270;22536;-64
2022/06/29 09:11:28;;;;;;;12.40;5.60;;;;;;;23.02;69.26;100373.23;106005;1270;22547;-63
2022/06/29 09:14:14;;;;;;;12.90;5.70;;;;;;;22.95;69.44;100384.69;106091;1270;23090;-64
2022/06/29 09:17:03;;;;;;;12.50;6.60;;;;;;;22.97;69.94;100399.05;105982;1270;22575;-64
2022/06/29 09:19:47;;;;;;;10.80;5.70;;;;;;;22.92;69.65;100409.70;106159;1270;25698;-64
2022/06/29 09:22:19;;;;;;;14.80;6.70;;;;;;;22.90;70.30;100430.37;106086;1270;23069;-64
2022/06/29 09:24:51;;;;;;;15.60;7.20;;;;;;;22.88;70.62;100440.34;106106;1270;22538;-65
2022/06/29 09:27:27;;;;;;;14.20;7.00;;;;;;;22.83;71.29;100442.39;106142;1270;25864;-64
2022/06/29 09:29:59;;;;;;;17.30;7.40;;;;;;;22.76;71.14;100452.55;106175;1271;22558;-58
2022/06/29 09:32:31;;;;;;;18.20;7.50;;;;;;;22.69;71.67;100454.60;106241;1270;22528;-55
2022/06/29 09:35:12;;;;;;;21.10;7.80;;;;;;;22.63;72.12;100448.19;106030;1270;26629;-61
2022/06/29 09:37:45;;;;;;;13.90;8.00;;;;;;;22.65;72.18;100445.39;106113;1270;24169;-62
2022/06/29 09:40:17;;;;;;;13.90;8.10;;;;;;;22.68;73.06;100432.89;106106;1270;25551;-62
2022/06/29 09:42:50;;;;;;;13.60;7.10;;;;;;;22.70;72.51;100422.99;105975;1270;22665;-66
2022/06/29 09:45:21;;;;;;;13.80;6.90;;;;;;;22.78;73.27;100413.36;106104;1270;22550;-63
2022/06/29 09:47:54;;;;;;;14.60;7.60;;;;;;;22.86;73.58;100405.11;105931;1270;22553;-63
2022/06/29 09:50:27;;;;;;;14.10;7.60;;;;;;;22.92;73.25;100405.85;106076;1270;24249;-63
2022/06/29 09:53:00;;;;;;;14.00;7.10;;;;;;;23.00;73.50;100394.10;106136;1270;24233;-64
2022/06/29 09:55:32;;;;;;;11.50;6.70;;;;;;;23.10;73.34;100381.27;106070;1270;26200;-64
2022/06/29 09:58:04;;;;;;;13.40;7.00;;;;;;;23.15;72.90;100373.27;106037;1270;24244;-64
2022/06/29 10:03:26;;;;;;;15.30;7.00;;;;;;;23.23;72.81;100367.80;106088;1270;24238;-65
2022/06/29 10:06:05;;;;;;;13.30;7.20;;;;;;;23.27;72.78;100373.23;106124;1270;22553;-65
2022/06/29 10:08:38;;;;;;;15.00;7.70;;;;;;;23.33;72.44;100377.11;106204;1270;22583;-65
2022/06/29 10:14:12;;;;;;;13.30;7.80;;;;;;;23.55;73.33;100368.30;106085;1270;23919;-65
2022/06/29 10:16:51;;;;;;;16.70;7.50;;;;;;;23.65;73.27;100370.67;106208;1270;24227;-65
2022/06/29 10:19:41;;;;;;;15.90;8.20;;;;;;;23.77;72.60;100376.96;106162;1270;25400;-64
2022/06/29 10:22:16;;;;;;;17.60;10.00;;;;;;;23.88;72.88;100379.34;106183;1270;22765;-65
2022/06/29 10:25:10;;;;;;;15.50;9.30;;;;;;;23.96;72.72;100375.64;106218;1270;25373;-64
2022/06/29 10:28:16;;;;;;;17.30;9.10;;;;;;;24.07;72.48;100368.48;106225;1270;22625;-64
2022/06/29 10:30:50;;;;;;;18.20;9.10;;;;;;;24.08;71.81;100365.75;106362;1260;22622;-52
2022/06/29 10:33:37;;;;;;;15.00;8.50;;;;;;;24.07;71.93;100364.80;105963;1270;25246;-55
2022/06/29 10:36:11;;;;;;;17.50;9.40;;;;;;;24.10;71.80;100369.07;106100;1270;23653;-53
2022/06/29 10:39:55;;;;;;;16.00;9.70;;;;;;;24.17;71.82;100362.38;106341;1271;24211;-51
2022/06/29 10:43:21;;;;;;;18.90;10.00;;;;;;;24.21;71.19;100358.91;106648;1271;23564;-56
2022/06/29 10:46:01;;;;;;;18.90;9.80;;;;;;;24.20;70.59;100353.85;106751;1267;25194;-54
2022/06/29 10:48:33;;;;;;;15.60;9.10;;;;;;;24.21;71.15;100350.23;106486;1267;22548;-50
2022/06/29 10:51:09;;;;;;;16.10;8.90;;;;;;;24.26;70.86;100346.88;106501;1269;23933;-53
2022/06/29 10:54:29;;;;;;;14.60;9.20;;;;;;;24.31;70.41;100344.76;106722;1270;22576;-52
2022/06/29 10:57:10;;;;;;;17.50;9.20;;;;;;;24.38;70.16;100334.81;106255;1270;24216;-56
2022/06/29 10:59:45;;;;;;;17.90;9.20;;;;;;;24.43;70.04;100328.37;106461;1270;26482;-53
2022/06/29 11:02:21;;;;;;;16.50;8.60;;;;;;;24.48;69.83;100330.48;106989;1269;23939;-52
2022/06/29 11:04:56;;;;;;;14.10;8.30;;;;;;;24.56;70.12;100330.27;106266;1270;23818;-53
2022/06/29 11:13:14;;;;;;;14.20;7.50;;;;;;;24.79;68.64;100307.58;105777;1272;24232;-53
2022/06/29 11:15:53;;;;;;;15.20;6.90;;;;;;;24.82;68.45;100309.36;105964;1274;23991;-53
2022/06/29 11:18:29;;;;;;;14.70;7.10;;;;;;;24.87;68.55;100313.98;106143;1274;22622;-50
2022/06/29 11:21:03;;;;;;;14.60;7.80;;;;;;;24.97;68.34;100313.11;106195;1274;22855;-51
2022/06/29 11:23:37;;;;;;;12.60;6.50;;;;;;;25.07;67.66;100312.45;106408;1273;24191;-53
2022/06/29 11:26:10;;;;;;;12.10;6.00;;;;;;;25.17;67.26;100310.49;106171;1274;22580;-53
2022/06/29 11:28:42;;;;;;;12.80;6.20;;;;;;;25.26;67.04;100306.78;106114;1274;22547;-52
2022/06/29 11:31:15;;;;;;;15.60;8.00;;;;;;;25.40;67.16;100304.27;106039;1271;25383;-53
2022/06/29 11:33:52;;;;;;;12.40;6.50;;;;;;;25.50;66.82;100303.94;106026;1274;22573;-50
2022/06/29 11:36:27;;;;;;;14.30;7.20;;;;;;;25.58;66.65;100305.91;106078;1271;25248;-52
2022/06/29 11:39:06;;;;;;;15.00;7.30;;;;;;;25.68;66.26;100306.57;105881;1274;25395;-50
2022/06/29 11:44:31;;;;;;;12.70;7.20;;;;;;;25.74;65.85;100310.26;105946;1274;23059;-54
2022/06/29 11:47:10;;;;;;;12.10;7.00;;;;;;;25.77;65.46;100309.63;106005;1274;24928;-53
2022/06/29 11:49:45;;;;;;;12.90;6.00;;;;;;;25.75;65.26;100302.73;106070;1271;22572;-49
2022/06/29 11:52:18;;;;;;;11.00;6.10;;;;;;;25.82;65.12;100301.08;106086;1271;23045;-53
2022/06/29 11:54:56;;;;;;;14.30;7.10;;;;;;;25.92;64.80;100301.64;106379;1270;24935;-52
2022/06/29 12:01:43;;;;;;;12.70;6.20;;;;;;;26.08;63.87;100295.30;105845;1273;24644;-50
2022/06/29 12:04:49;;;;;;;13.30;6.40;;;;;;;26.09;63.45;100285.75;105797;1273;22534;-50
2022/06/29 12:08:04;;;;;;;11.50;6.10;;;;;;;26.16;63.37;100288.77;105939;1274;23251;-51